createdAt,value
2019-03-26T00:02:12.344Z,3.60
2019-03-26T00:04:59.062Z,3.60
2019-03-26T00:07:47.363Z,3.60
2019-03-26T00:10:30.511Z,3.60
2019-03-26T00:13:17.282Z,3.60
2019-03-26T00:16:02.534Z,3.70
2019-03-26T00:18:42.285Z,3.60
2019-03-26T00:21:24.803Z,3.70
2019-03-26T00:24:16.417Z,3.60
2019-03-26T00:27:00.413Z,3.60
2019-03-26T00:29:43.426Z,3.60
2019-03-26T00:32:36.361Z,3.60
2019-03-26T00:35:29.959Z,3.50
2019-03-26T00:38:10.528Z,3.50
2019-03-26T00:40:48.520Z,3.50
2019-03-26T00:43:30.473Z,3.40
2019-03-26T00:46:20.405Z,3.40
2019-03-26T00:49:06.436Z,3.40
2019-03-26T00:51:52.395Z,3.40
2019-03-26T00:54:43.057Z,3.40
2019-03-26T00:57:27.455Z,3.40
2019-03-26T01:00:10.567Z,3.40
2019-03-26T01:02:56.769Z,3.40
2019-03-26T01:05:45.012Z,3.40
2019-03-26T01:08:28.693Z,3.50
2019-03-26T01:11:18.889Z,3.50
2019-03-26T01:13:58.845Z,3.50
2019-03-26T01:16:36.564Z,3.50
2019-03-26T01:19:20.901Z,3.50
2019-03-26T01:22:10.544Z,3.50
2019-03-26T01:24:57.149Z,3.50
2019-03-26T01:27:46.501Z,3.50
2019-03-26T01:30:42.301Z,3.50
2019-03-26T01:33:27.095Z,3.50
2019-03-26T01:36:12.238Z,3.50
2019-03-26T01:38:51.220Z,3.50
2019-03-26T01:41:31.681Z,3.50
2019-03-26T01:44:26.077Z,3.50
2019-03-26T01:47:07.002Z,3.50
2019-03-26T01:49:54.256Z,3.50
2019-03-26T01:52:31.760Z,3.50
2019-03-26T01:55:16.688Z,3.50
2019-03-26T01:58:01.518Z,3.50
2019-03-26T02:00:49.959Z,3.50
2019-03-26T02:03:36.824Z,3.50
2019-03-26T02:06:36.152Z,3.50
2019-03-26T02:09:28.417Z,3.50
2019-03-26T02:12:24.685Z,3.50
2019-03-26T02:15:12.678Z,3.50
2019-03-26T02:18:00.452Z,3.50
2019-03-26T02:20:46.994Z,3.50
2019-03-26T02:23:34.745Z,3.50
2019-03-26T02:26:15.222Z,3.60
2019-03-26T02:29:02.789Z,3.60
2019-03-26T02:31:50.805Z,3.60
2019-03-26T02:34:38.150Z,3.60
2019-03-26T02:37:16.843Z,3.60
2019-03-26T02:40:12.432Z,3.70
2019-03-26T02:42:59.121Z,3.70
2019-03-26T02:45:49.753Z,3.60
2019-03-26T02:48:30.814Z,3.60
2019-03-26T02:51:17.920Z,3.60
2019-03-26T02:54:06.139Z,3.60
2019-03-26T02:56:49.637Z,3.60
2019-03-26T02:59:30.244Z,3.60
2019-03-26T03:02:13.571Z,3.60
2019-03-26T03:05:07.897Z,3.60
2019-03-26T03:07:45.908Z,3.60
2019-03-26T03:10:31.308Z,3.60
2019-03-26T03:13:16.486Z,3.50
2019-03-26T03:16:06.788Z,3.60
2019-03-26T03:18:55.047Z,3.60
2019-03-26T03:21:39.252Z,3.50
2019-03-26T03:24:21.627Z,3.50
2019-03-26T03:27:04.552Z,3.50
2019-03-26T03:29:48.359Z,3.50
2019-03-26T03:32:37.189Z,3.50
2019-03-26T03:35:52.646Z,3.50
2019-03-26T03:38:32.380Z,3.50
2019-03-26T03:41:22.619Z,3.50
2019-03-26T03:44:08.172Z,3.50
2019-03-26T03:46:50.652Z,3.50
2019-03-26T03:49:47.136Z,3.50
2019-03-26T03:52:28.508Z,3.50
2019-03-26T03:55:19.324Z,3.50
2019-03-26T03:58:00.867Z,3.40
2019-03-26T04:00:43.339Z,3.40
2019-03-26T04:03:33.791Z,3.30
2019-03-26T04:06:29.859Z,3.30
2019-03-26T04:09:10.705Z,3.20
2019-03-26T04:11:51.045Z,3.20
2019-03-26T04:14:39.968Z,3.10
2019-03-26T04:17:19.785Z,3.10
2019-03-26T04:20:06.350Z,3.10
2019-03-26T04:22:50.098Z,3.00
2019-03-26T04:25:46.770Z,3.00
2019-03-26T04:28:29.332Z,2.90
2019-03-26T04:31:23.797Z,2.90
2019-03-26T04:33:56.682Z,2.90
2019-03-26T04:36:47.966Z,2.90
2019-03-26T04:39:28.085Z,2.80
2019-03-26T04:42:14.123Z,2.80
2019-03-26T04:45:13.903Z,2.80
2019-03-26T04:48:00.110Z,2.80
2019-03-26T04:50:41.971Z,2.80
2019-03-26T04:53:34.204Z,2.80
2019-03-26T04:56:18.111Z,2.80
2019-03-26T04:58:57.655Z,2.90
2019-03-26T05:01:50.564Z,2.90
2019-03-26T05:04:28.424Z,2.90
2019-03-26T05:07:14.783Z,2.90
2019-03-26T05:10:21.820Z,2.90
2019-03-26T05:13:07.305Z,2.90
2019-03-26T05:16:03.996Z,3.00
2019-03-26T05:18:41.942Z,3.00
2019-03-26T05:21:25.977Z,3.00
2019-03-26T05:24:09.667Z,3.00
2019-03-26T05:26:57.079Z,3.00
2019-03-26T05:29:39.157Z,2.90
2019-03-26T05:32:20.754Z,2.90
2019-03-26T05:35:09.857Z,2.90
2019-03-26T05:38:03.267Z,2.90
2019-03-26T05:40:42.049Z,2.90
2019-03-26T05:43:26.420Z,2.90
2019-03-26T05:46:09.013Z,2.90
2019-03-26T05:49:05.909Z,2.90
2019-03-26T05:51:49.951Z,2.90
2019-03-26T05:54:39.375Z,2.90
2019-03-26T05:57:20.258Z,3.00
2019-03-26T06:00:12.230Z,3.00
2019-03-26T06:02:49.538Z,3.10
2019-03-26T06:05:27.980Z,3.10
2019-03-26T06:08:07.797Z,3.20
2019-03-26T06:10:48.590Z,3.20
2019-03-26T06:13:28.211Z,3.30
2019-03-26T06:16:06.759Z,3.40
2019-03-26T06:18:44.372Z,3.50
2019-03-26T06:21:23.140Z,3.60
2019-03-26T06:24:00.426Z,3.80
2019-03-26T06:26:37.698Z,3.80
2019-03-26T06:29:17.869Z,3.80
2019-03-26T06:31:55.488Z,3.90
2019-03-26T06:34:32.781Z,3.90
2019-03-26T06:37:17.906Z,3.90
2019-03-26T06:39:49.114Z,4.00
2019-03-26T06:42:26.618Z,4.00
2019-03-26T06:45:07.004Z,4.00
2019-03-26T06:47:44.391Z,4.00
2019-03-26T06:50:21.676Z,4.00
2019-03-26T06:52:59.025Z,4.10
2019-03-26T06:55:36.776Z,4.00
2019-03-26T06:58:14.036Z,4.00
2019-03-26T07:00:51.289Z,4.10
2019-03-26T07:03:28.645Z,4.10
2019-03-26T07:06:05.827Z,4.20
2019-03-26T07:08:45.359Z,4.20
2019-03-26T07:11:22.700Z,4.20
2019-03-26T07:13:59.997Z,4.30
2019-03-26T07:16:37.273Z,4.40
2019-03-26T07:19:17.525Z,4.50
2019-03-26T07:21:56.848Z,4.60
2019-03-26T07:24:34.185Z,4.70
2019-03-26T07:27:11.452Z,4.90
2019-03-26T07:29:48.777Z,5.00
2019-03-26T07:32:26.544Z,5.20
2019-03-26T07:35:04.543Z,5.20
2019-03-26T07:37:45.488Z,5.30
2019-03-26T07:40:20.816Z,5.30
2019-03-26T07:42:58.097Z,5.70
2019-03-26T07:45:35.359Z,5.70
2019-03-26T07:48:12.693Z,5.90
2019-03-26T07:50:50.002Z,5.70
2019-03-26T07:53:27.321Z,5.60
2019-03-26T07:56:05.036Z,5.70
2019-03-26T07:58:47.473Z,6.20
2019-03-26T08:01:25.217Z,6.60
2019-03-26T08:04:03.138Z,7.10
2019-03-26T08:06:41.070Z,7.70
2019-03-26T08:09:21.578Z,8.20
2019-03-26T08:11:58.955Z,8.30
2019-03-26T08:14:36.183Z,8.40
2019-03-26T08:17:13.520Z,8.50
2019-03-26T08:19:50.797Z,8.40
2019-03-26T08:22:29.310Z,8.30
2019-03-26T08:25:07.661Z,8.10
2019-03-26T08:27:45.045Z,7.80
2019-03-26T08:30:22.961Z,7.70
2019-03-26T08:33:00.323Z,7.60
2019-03-26T08:35:37.593Z,7.60
2019-03-26T08:38:14.968Z,7.60
2019-03-26T08:40:53.285Z,7.60
2019-03-26T08:43:31.216Z,7.60
2019-03-26T08:46:09.342Z,7.60
2019-03-26T08:48:47.193Z,7.70
2019-03-26T08:51:24.684Z,7.70
2019-03-26T08:54:03.169Z,7.90
2019-03-26T08:56:43.638Z,8.00
2019-03-26T08:59:23.474Z,7.80
2019-03-26T09:02:02.337Z,7.60
2019-03-26T09:04:39.938Z,7.40
2019-03-26T09:07:17.223Z,7.30
2019-03-26T09:09:54.567Z,7.30
2019-03-26T09:12:31.834Z,7.20
2019-03-26T09:15:09.234Z,7.20
2019-03-26T09:17:46.510Z,7.20
2019-03-26T09:20:23.888Z,7.10
2019-03-26T09:23:03.113Z,7.00
2019-03-26T09:25:40.485Z,6.90
2019-03-26T09:28:17.763Z,6.90
2019-03-26T09:30:55.045Z,6.70
2019-03-26T09:33:33.692Z,6.70
2019-03-26T09:36:12.240Z,6.90
2019-03-26T09:38:55.366Z,7.10
2019-03-26T09:41:39.920Z,7.30
2019-03-26T09:44:22.301Z,7.30
2019-03-26T09:47:16.106Z,7.50
2019-03-26T09:49:47.725Z,7.60
2019-03-26T09:52:25.191Z,7.70
2019-03-26T09:55:04.965Z,7.80
2019-03-26T09:57:42.636Z,7.80
2019-03-26T10:00:20.205Z,7.80
2019-03-26T10:02:57.799Z,7.70
2019-03-26T10:05:35.209Z,7.80
2019-03-26T10:08:12.667Z,7.90
2019-03-26T10:10:49.955Z,8.00
2019-03-26T10:13:27.276Z,7.90
2019-03-26T10:16:04.568Z,7.80
2019-03-26T10:18:41.794Z,7.90
2019-03-26T10:21:19.154Z,8.00
2019-03-26T10:23:58.491Z,8.00
2019-03-26T10:26:35.964Z,8.00
2019-03-26T10:29:24.193Z,8.00
2019-03-26T10:31:52.189Z,8.00
2019-03-26T10:34:29.373Z,7.90
2019-03-26T10:37:06.688Z,7.90
2019-03-26T10:39:44.011Z,7.80
2019-03-26T10:42:21.351Z,7.70
2019-03-26T10:44:58.634Z,7.70
2019-03-26T10:47:35.948Z,7.70
2019-03-26T10:50:13.248Z,7.70
2019-03-26T10:52:50.435Z,7.60
2019-03-26T10:55:27.722Z,7.50
2019-03-26T10:58:05.143Z,7.50
2019-03-26T11:00:42.440Z,7.60
2019-03-26T11:03:19.968Z,7.60
2019-03-26T11:05:57.276Z,7.50
2019-03-26T11:08:34.593Z,7.50
2019-03-26T11:11:11.809Z,7.60
2019-03-26T11:13:49.010Z,7.60
2019-03-26T11:16:26.528Z,7.70
2019-03-26T11:19:03.866Z,7.60
2019-03-26T11:21:41.100Z,7.50
2019-03-26T11:24:18.330Z,7.30
2019-03-26T11:26:55.706Z,7.20
2019-03-26T11:29:33.016Z,7.20
2019-03-26T11:32:10.248Z,7.20
2019-03-26T11:34:47.570Z,7.00
2019-03-26T11:37:24.884Z,6.90
2019-03-26T11:40:02.242Z,6.80
2019-03-26T11:42:42.243Z,6.70
2019-03-26T11:45:19.573Z,6.60
2019-03-26T11:47:56.988Z,6.40
2019-03-26T11:50:34.430Z,6.20
2019-03-26T11:53:11.865Z,5.90
2019-03-26T11:55:50.523Z,5.60
2019-03-26T11:58:30.744Z,5.60
2019-03-26T12:01:06.775Z,5.60
2019-03-26T12:03:44.127Z,5.60
2019-03-26T12:06:21.438Z,5.70
2019-03-26T12:08:58.754Z,5.80
2019-03-26T12:11:36.078Z,5.80
2019-03-26T12:14:13.267Z,5.70
2019-03-26T12:16:50.521Z,5.70
2019-03-26T12:19:27.804Z,5.70
2019-03-26T12:22:05.214Z,5.70
2019-03-26T12:24:45.228Z,5.90
2019-03-26T12:27:22.532Z,5.90
2019-03-26T12:29:59.728Z,5.90
2019-03-26T12:32:36.950Z,6.00
2019-03-26T12:35:17.317Z,6.00
2019-03-26T12:37:54.738Z,6.00
2019-03-26T12:40:32.024Z,6.00
2019-03-26T12:43:09.479Z,6.10
2019-03-26T12:45:46.747Z,6.10
2019-03-26T12:48:23.988Z,6.20
2019-03-26T12:51:01.304Z,6.30
2019-03-26T12:53:38.665Z,6.30
2019-03-26T12:56:15.973Z,6.30
2019-03-26T12:58:53.234Z,6.30
2019-03-26T13:01:30.509Z,6.40
2019-03-26T13:04:12.855Z,6.50
2019-03-26T13:06:46.727Z,6.60
2019-03-26T13:09:24.074Z,6.60
2019-03-26T13:12:01.181Z,6.70
2019-03-26T13:14:38.389Z,6.70
2019-03-26T13:17:15.713Z,6.80
2019-03-26T13:19:52.924Z,6.80
2019-03-26T13:22:30.213Z,6.80
2019-03-26T13:25:08.397Z,6.80
2019-03-26T13:27:45.695Z,6.70
2019-03-26T13:30:24.400Z,6.70
2019-03-26T13:33:03.929Z,6.70
2019-03-26T13:35:41.252Z,6.70
2019-03-26T13:38:18.468Z,6.80
2019-03-26T13:40:55.799Z,6.80
2019-03-26T13:43:33.088Z,6.80
2019-03-26T13:46:10.377Z,6.80
2019-03-26T13:48:47.581Z,6.90
2019-03-26T13:51:24.921Z,6.80
2019-03-26T13:54:02.272Z,6.80
2019-03-26T13:56:39.554Z,6.80
2019-03-26T13:59:16.868Z,6.90
2019-03-26T14:01:54.199Z,6.90
2019-03-26T14:04:31.546Z,6.90
2019-03-26T14:07:08.864Z,6.80
2019-03-26T14:09:46.155Z,6.90
2019-03-26T14:12:23.347Z,6.90
2019-03-26T14:15:00.592Z,7.00
2019-03-26T14:17:37.923Z,7.00
2019-03-26T14:20:15.172Z,7.00
2019-03-26T14:22:52.509Z,7.00
2019-03-26T14:25:31.352Z,7.00
2019-03-26T14:28:08.695Z,7.00
2019-03-26T14:30:46.024Z,7.00
2019-03-26T14:33:23.534Z,7.10
2019-03-26T14:36:00.884Z,7.20
2019-03-26T14:38:39.024Z,7.20
2019-03-26T14:41:16.289Z,7.20
2019-03-26T14:43:55.313Z,7.20
2019-03-26T14:46:32.574Z,7.20
2019-03-26T14:49:09.919Z,7.20
2019-03-26T14:51:48.609Z,7.20
2019-03-26T14:54:26.000Z,7.10
2019-03-26T14:57:03.296Z,7.10
2019-03-26T14:59:40.652Z,7.10
2019-03-26T15:02:18.004Z,7.10
2019-03-26T15:04:55.401Z,7.10
2019-03-26T15:07:32.721Z,7.10
2019-03-26T15:10:10.069Z,7.10
2019-03-26T15:12:47.401Z,7.10
2019-03-26T15:15:24.620Z,7.10
2019-03-26T15:18:01.919Z,7.10
2019-03-26T15:20:39.185Z,7.10
2019-03-26T15:23:16.544Z,7.10
2019-03-26T15:25:53.829Z,7.00
2019-03-26T15:28:32.753Z,7.00
2019-03-26T15:31:10.047Z,6.90
2019-03-26T15:33:47.296Z,6.90
2019-03-26T15:36:24.572Z,6.90
2019-03-26T15:39:01.921Z,6.90
2019-03-26T15:41:39.110Z,6.90
2019-03-26T15:44:16.445Z,6.90
2019-03-26T15:46:53.593Z,6.90
2019-03-26T15:49:30.925Z,6.90
2019-03-26T15:52:08.263Z,6.90
2019-03-26T15:54:45.491Z,6.90
2019-03-26T15:57:22.825Z,6.90
2019-03-26T16:00:00.036Z,6.80
2019-03-26T16:02:38.276Z,6.90
2019-03-26T16:05:15.549Z,6.80
2019-03-26T16:07:52.875Z,6.80
2019-03-26T16:10:30.170Z,6.80
2019-03-26T16:13:07.470Z,6.80
2019-03-26T16:15:45.326Z,6.80
2019-03-26T16:18:22.610Z,6.90
2019-03-26T16:20:59.963Z,6.90
2019-03-26T16:23:37.263Z,6.90
2019-03-26T16:26:14.604Z,6.90
2019-03-26T16:28:51.933Z,6.90
2019-03-26T16:31:29.262Z,6.90
2019-03-26T16:34:06.476Z,6.90
2019-03-26T16:36:43.714Z,6.90
2019-03-26T16:39:21.018Z,6.80
2019-03-26T16:41:58.389Z,6.80
2019-03-26T16:44:35.567Z,6.90
2019-03-26T16:47:12.896Z,6.80
2019-03-26T16:49:50.098Z,6.80
2019-03-26T16:52:27.460Z,6.80
2019-03-26T16:55:07.930Z,6.80
2019-03-26T16:57:46.179Z,6.80
2019-03-26T17:00:31.488Z,6.70
2019-03-26T17:03:08.841Z,6.80
2019-03-26T17:05:46.190Z,6.80
2019-03-26T17:08:23.457Z,6.80
2019-03-26T17:11:00.765Z,6.80
2019-03-26T17:13:38.099Z,6.80
2019-03-26T17:16:15.298Z,6.80
2019-03-26T17:18:52.657Z,6.80
2019-03-26T17:21:33.838Z,6.80
2019-03-26T17:24:11.205Z,6.70
2019-03-26T17:26:49.119Z,6.80
2019-03-26T17:29:26.447Z,6.70
2019-03-26T17:32:03.663Z,6.80
2019-03-26T17:34:40.993Z,6.70
2019-03-26T17:37:18.330Z,6.70
2019-03-26T17:39:55.642Z,6.70
2019-03-26T17:42:32.944Z,6.70
2019-03-26T17:45:10.255Z,6.70
2019-03-26T17:47:47.583Z,6.70
2019-03-26T17:50:24.906Z,6.70
2019-03-26T17:53:02.196Z,6.50
2019-03-26T17:55:39.511Z,6.30
2019-03-26T17:58:20.551Z,6.00
2019-03-26T18:00:59.811Z,5.90
2019-03-26T18:03:37.073Z,5.90
2019-03-26T18:06:15.669Z,5.60
2019-03-26T18:08:52.989Z,5.00
2019-03-26T18:11:33.529Z,4.50
2019-03-26T18:14:10.870Z,4.20
2019-03-26T18:16:48.529Z,4.10
2019-03-26T18:19:26.499Z,4.00
2019-03-26T18:22:03.903Z,3.90
2019-03-26T18:25:13.259Z,3.90
2019-03-26T18:28:02.395Z,3.90
2019-03-26T18:30:39.714Z,3.90
2019-03-26T18:33:16.964Z,3.80
2019-03-26T18:35:54.133Z,3.70
2019-03-26T18:38:31.383Z,3.50
2019-03-26T18:41:08.678Z,3.50
2019-03-26T18:43:48.458Z,3.40
2019-03-26T18:46:26.832Z,3.50
2019-03-26T18:49:04.168Z,3.50
2019-03-26T18:51:41.390Z,3.50
2019-03-26T18:54:18.776Z,3.60
2019-03-26T18:56:55.982Z,3.50
2019-03-26T18:59:33.226Z,3.60
2019-03-26T19:02:10.550Z,3.50
2019-03-26T19:04:48.058Z,3.50
2019-03-26T19:07:25.504Z,3.50
2019-03-26T19:10:02.823Z,3.50
2019-03-26T19:12:41.725Z,3.50
2019-03-26T19:15:19.071Z,3.60
2019-03-26T19:17:56.362Z,3.60
2019-03-26T19:20:35.577Z,3.60
2019-03-26T19:23:15.602Z,3.60
2019-03-26T19:25:52.939Z,3.60
2019-03-26T19:28:30.343Z,3.60
2019-03-26T19:31:07.660Z,3.60
2019-03-26T19:33:45.006Z,3.60
2019-03-26T19:36:22.364Z,3.60
2019-03-26T19:39:07.925Z,3.60
2019-03-26T19:41:46.456Z,3.60
2019-03-26T19:44:23.774Z,3.60
2019-03-26T19:47:01.207Z,3.60
2019-03-26T19:49:38.632Z,3.60
2019-03-26T19:52:15.929Z,3.70
2019-03-26T19:54:53.245Z,3.60
2019-03-26T19:57:30.595Z,3.60
2019-03-26T20:00:11.223Z,3.60
2019-03-26T20:02:48.542Z,3.60
2019-03-26T20:05:25.991Z,3.50
2019-03-26T20:08:03.349Z,3.50
2019-03-26T20:10:40.838Z,3.50
2019-03-26T20:13:24.273Z,3.50
2019-03-26T20:15:57.536Z,3.50
2019-03-26T20:18:34.944Z,3.50
2019-03-26T20:21:12.316Z,3.50
2019-03-26T20:23:49.631Z,3.50
2019-03-26T20:26:26.999Z,3.50
2019-03-26T20:29:04.261Z,3.50
2019-03-26T20:31:41.666Z,3.50
2019-03-26T20:34:19.838Z,3.50
2019-03-26T20:36:57.142Z,3.60
2019-03-26T20:39:34.641Z,3.60
2019-03-26T20:42:11.966Z,3.60
2019-03-26T20:45:26.331Z,3.60
2019-03-26T20:48:03.662Z,3.60
2019-03-26T20:50:40.957Z,3.60
2019-03-26T20:53:21.097Z,3.60
2019-03-26T20:55:58.618Z,3.60
2019-03-26T20:58:37.261Z,3.60
2019-03-26T21:01:16.353Z,3.60
2019-03-26T21:03:54.458Z,3.60
2019-03-26T21:06:31.684Z,3.50
2019-03-26T21:09:09.264Z,3.50
2019-03-26T21:11:46.768Z,3.50
2019-03-26T21:14:24.117Z,3.50
2019-03-26T21:17:01.615Z,3.50
2019-03-26T21:19:38.923Z,3.60
2019-03-26T21:22:16.330Z,3.60
2019-03-26T21:24:53.641Z,3.60
2019-03-26T21:27:31.014Z,3.60
2019-03-26T21:30:15.565Z,3.70
2019-03-26T21:32:51.249Z,3.70
2019-03-26T21:35:29.005Z,3.70
2019-03-26T21:38:06.713Z,3.70
2019-03-26T21:40:47.125Z,3.80
2019-03-26T21:43:22.904Z,3.70
2019-03-26T21:46:00.349Z,3.70
2019-03-26T21:48:41.736Z,3.80
2019-03-26T21:51:19.076Z,3.80
2019-03-26T21:53:56.247Z,3.80
2019-03-26T21:56:33.577Z,3.80
2019-03-26T21:59:10.727Z,3.80
2019-03-26T22:01:48.129Z,3.80
2019-03-26T22:04:30.556Z,3.80
2019-03-26T22:07:22.027Z,3.80
2019-03-26T22:10:08.987Z,3.80
2019-03-26T22:12:57.202Z,3.80
2019-03-26T22:15:39.729Z,3.70
2019-03-26T22:18:20.659Z,3.70
2019-03-26T22:21:28.035Z,3.70
2019-03-26T22:24:29.484Z,3.70
2019-03-26T22:27:28.297Z,3.70
2019-03-26T22:30:20.554Z,3.70
2019-03-26T22:33:16.769Z,3.60
2019-03-26T22:36:02.443Z,3.60
2019-03-26T22:38:39.828Z,3.60
2019-03-26T22:41:31.440Z,3.60
2019-03-26T22:44:14.450Z,3.60
2019-03-26T22:47:08.063Z,3.60
2019-03-26T22:50:00.404Z,3.60
2019-03-26T22:52:43.954Z,3.60
2019-03-26T22:55:30.041Z,3.60
2019-03-26T22:58:08.445Z,3.60
2019-03-26T23:00:52.301Z,3.60
2019-03-26T23:03:45.962Z,3.60
2019-03-26T23:06:37.933Z,3.60
2019-03-26T23:09:17.912Z,3.60
2019-03-26T23:12:07.992Z,3.60
2019-03-26T23:15:05.452Z,3.60
2019-03-26T23:17:48.415Z,3.60
2019-03-26T23:20:33.522Z,3.60
2019-03-26T23:23:12.508Z,3.60
2019-03-26T23:25:58.794Z,3.60
2019-03-26T23:28:43.832Z,3.60
2019-03-26T23:31:42.065Z,3.60
2019-03-26T23:34:27.506Z,3.60
2019-03-26T23:37:10.266Z,3.60
2019-03-26T23:39:50.226Z,3.60
2019-03-26T23:42:44.705Z,3.60
2019-03-26T23:45:27.983Z,3.60
2019-03-26T23:48:16.522Z,3.60
2019-03-26T23:51:05.157Z,3.60
2019-03-26T23:53:51.181Z,3.50
2019-03-26T23:56:28.878Z,3.50
2019-03-26T23:59:13.802Z,3.50
